Mary K Cavarra — WDB9000 — position and weather

sailwx.info

Track history (hours):
 
Tides and Currents Weather Stations Pressure Air Temp Water Temp Dewpoint Dewpoint Depression Visibility Wind Speed Wind Dir Waves Ship Positions

Mary K Cavarra

Owner: Ingram Barge Company LLC, Nashville, TN. More information available from US FCC via Universal Licensing System and Coast Guard Vessel Documentation Center.

Last reported at 2017-Sep-18 09:02 UTC. Time now 2017-Sep-20 20:18 UTC.
Position N 41°34' W 090°24'.

Length 19 m; draft 3.3 m.

Type: Towing. MMSI: 366967650.

Date/timePositionNaut miles runAvg speedWind from/ knotsBaromVisibWave heightAir tempDewpointWater temp
2017-Sep-18 09:02N 41°34' W 090°24'0 1.4
2017-Sep-18 08:54N 41°34' W 090°24'2 1.1
2017-Sep-18 07:30N 41°33' W 090°26'36 1.9
2017-Sep-17 12:25N 41°12' W 091°04'1 2.0
2017-Sep-17 11:57N 41°12' W 091°03'  
2017-Sep-14 15:53N 38°53' W 090°32'1 3.5
2017-Sep-14 15:28N 38°54' W 090°31'2 3.4
2017-Sep-14 15:01N 38°55' W 090°30'2 3.3
2017-Sep-14 14:31N 38°57' W 090°29'2 3.3
2017-Sep-14 14:01N 38°57' W 090°27'2 3.7
2017-Sep-14 13:30N 38°58' W 090°25'1 1.3
2017-Sep-14 13:01N 38°58' W 090°24'0 0.1
2017-Sep-14 12:31N 38°58' W 090°24'0 0.1
2017-Sep-14 12:01N 38°58' W 090°24'0 0.1
2017-Sep-14 11:31N 38°58' W 090°24'0 0.0
2017-Sep-14 11:01N 38°58' W 090°24'0 0.1
2017-Sep-14 10:31N 38°58' W 090°24'0 0.2
2017-Sep-14 10:01N 38°58' W 090°24'0 0.0
2017-Sep-14 09:31N 38°58' W 090°24'0 0.2
2017-Sep-14 09:01N 38°58' W 090°24'2 3.6
2017-Sep-14 08:30N 38°57' W 090°22'2 3.7
2017-Sep-14 08:01N 38°56' W 090°20'2 0.1
2017-Sep-12 12:47N 38°55' W 090°17'1 5.0
2017-Sep-12 12:31N 38°55' W 090°19'2 5.0
2017-Sep-12 12:01N 38°57' W 090°21'2 4.5
2017-Sep-12 11:31N 38°58' W 090°24'2 4.8
2017-Sep-12 11:01N 38°57' W 090°27'2 4.7
2017-Sep-12 10:31N 38°56' W 090°29'109 2.3
2017-Sep-10 10:38N 40°41' W 091°07'1 5.1
2017-Sep-10 10:29N 40°41' W 091°07'2 4.7
2017-Sep-10 10:00N 40°44' W 091°07'3 5.1
2017-Sep-10 09:30N 40°46' W 091°06'2 4.7
2017-Sep-10 09:00N 40°48' W 091°06'2 4.5
2017-Sep-10 08:31N 40°50' W 091°04'1 1.6
2017-Sep-10 08:01N 40°51' W 091°03'0 0.0
2017-Sep-10 07:31N 40°51' W 091°03'1 1.7
2017-Sep-10 07:00N 40°52' W 091°03'2 3.5
2017-Sep-10 06:30N 40°53' W 091°01'0 0.2
2017-Sep-10 06:00N 40°53' W 091°01'0 0.1
2017-Sep-10 05:30N 40°53' W 091°01'0 0.3
2017-Sep-10 05:01N 40°53' W 091°01'2 3.3
2017-Sep-10 04:30N 40°54' W 090°60'2 4.0
2017-Sep-10 04:00N 40°55' W 090°58'2 4.9
2017-Sep-10 03:30N 40°58' W 090°57'2 4.7
2017-Sep-10 03:01N 41°00' W 090°57'4 5.1
2017-Sep-10 02:09N 41°05' W 090°57'  
Track history (hours):
 
Tides and Currents Weather Stations Pressure Air Temp Water Temp Dewpoint Dewpoint Depression Visibility Wind Speed Wind Dir Waves Ship Positions

Mary K Cavarra

Owner: Ingram Barge Company LLC, Nashville, TN. More information available from US FCC via Universal Licensing System and Coast Guard Vessel Documentation Center.

Last reported at 2017-Sep-18 09:02 UTC. Time now 2017-Sep-20 20:18 UTC.
Position N 41°34' W 090°24'.

Length 19 m; draft 3.3 m.

Type: Towing. MMSI: 366967650.

Date/timePositionNaut miles runAvg speedWind from/ knotsBaromVisibWave heightAir tempDewpointWater temp
2017-Sep-18 09:02N 41°34' W 090°24'0 1.4
2017-Sep-18 08:54N 41°34' W 090°24'2 1.1
2017-Sep-18 07:30N 41°33' W 090°26'36 1.9
2017-Sep-17 12:25N 41°12' W 091°04'1 2.0
2017-Sep-17 11:57N 41°12' W 091°03'  
2017-Sep-14 15:53N 38°53' W 090°32'1 3.5
2017-Sep-14 15:28N 38°54' W 090°31'2 3.4
2017-Sep-14 15:01N 38°55' W 090°30'2 3.3
2017-Sep-14 14:31N 38°57' W 090°29'2 3.3
2017-Sep-14 14:01N 38°57' W 090°27'2 3.7
2017-Sep-14 13:30N 38°58' W 090°25'1 1.3
2017-Sep-14 13:01N 38°58' W 090°24'0 0.1
2017-Sep-14 12:31N 38°58' W 090°24'0 0.1
2017-Sep-14 12:01N 38°58' W 090°24'0 0.1
2017-Sep-14 11:31N 38°58' W 090°24'0 0.0
2017-Sep-14 11:01N 38°58' W 090°24'0 0.1
2017-Sep-14 10:31N 38°58' W 090°24'0 0.2
2017-Sep-14 10:01N 38°58' W 090°24'0 0.0
2017-Sep-14 09:31N 38°58' W 090°24'0 0.2
2017-Sep-14 09:01N 38°58' W 090°24'2 3.6
2017-Sep-14 08:30N 38°57' W 090°22'2 3.7
2017-Sep-14 08:01N 38°56' W 090°20'2 0.1
2017-Sep-12 12:47N 38°55' W 090°17'1 5.0
2017-Sep-12 12:31N 38°55' W 090°19'2 5.0
2017-Sep-12 12:01N 38°57' W 090°21'2 4.5
2017-Sep-12 11:31N 38°58' W 090°24'2 4.8
2017-Sep-12 11:01N 38°57' W 090°27'2 4.7
2017-Sep-12 10:31N 38°56' W 090°29'109 2.3
2017-Sep-10 10:38N 40°41' W 091°07'1 5.1
2017-Sep-10 10:29N 40°41' W 091°07'2 4.7
2017-Sep-10 10:00N 40°44' W 091°07'3 5.1
2017-Sep-10 09:30N 40°46' W 091°06'2 4.7
2017-Sep-10 09:00N 40°48' W 091°06'2 4.5
2017-Sep-10 08:31N 40°50' W 091°04'1 1.6
2017-Sep-10 08:01N 40°51' W 091°03'0 0.0
2017-Sep-10 07:31N 40°51' W 091°03'1 1.7
2017-Sep-10 07:00N 40°52' W 091°03'2 3.5
2017-Sep-10 06:30N 40°53' W 091°01'0 0.2
2017-Sep-10 06:00N 40°53' W 091°01'0 0.1
2017-Sep-10 05:30N 40°53' W 091°01'0 0.3
2017-Sep-10 05:01N 40°53' W 091°01'2 3.3
2017-Sep-10 04:30N 40°54' W 090°60'2 4.0
2017-Sep-10 04:00N 40°55' W 090°58'2 4.9
2017-Sep-10 03:30N 40°58' W 090°57'2 4.7
2017-Sep-10 03:01N 41°00' W 090°57'4 5.1
2017-Sep-10 02:09N 41°05' W 090°57'  

Dump ship's entire track history